createdAt,value
2023-03-17T00:01:24.362Z,61
2023-03-17T00:11:25.972Z,62
2023-03-17T00:21:27.983Z,62
2023-03-17T00:31:30.442Z,62
2023-03-17T00:41:32.685Z,63
2023-03-17T00:51:35.050Z,63
2023-03-17T01:01:37.132Z,60
2023-03-17T01:31:43.744Z,56
2023-03-17T01:41:46.108Z,56
2023-03-17T01:51:48.608Z,56
2023-03-17T02:01:51.036Z,57
2023-03-17T02:11:52.987Z,58
2023-03-17T02:21:55.515Z,57
2023-03-17T02:31:57.696Z,58
2023-03-17T02:42:00.363Z,58
2023-03-17T02:52:02.972Z,59
2023-03-17T03:02:04.761Z,60
2023-03-17T03:12:06.934Z,59
2023-03-17T03:22:08.819Z,60
2023-03-17T03:32:11.193Z,61
2023-03-17T03:42:13.122Z,61
2023-03-17T03:52:14.898Z,61
2023-03-17T04:02:16.998Z,63
2023-03-17T04:12:19.492Z,63
2023-03-17T04:22:21.249Z,64
2023-03-17T04:32:24.041Z,64
2023-03-17T04:52:27.097Z,64
2023-03-17T05:02:29.464Z,65
2023-03-17T05:12:31.890Z,62
2023-03-17T05:22:34.291Z,59
2023-03-17T05:32:36.589Z,58
2023-03-17T05:42:38.396Z,58
2023-03-17T05:52:40.154Z,58
2023-03-17T06:02:41.928Z,58
2023-03-17T06:12:44.485Z,58
2023-03-17T06:23:02.569Z,58
2023-03-17T06:32:49.287Z,58
2023-03-17T06:42:51.780Z,58
2023-03-17T06:52:53.699Z,58
2023-03-17T07:02:55.920Z,58
2023-03-17T07:12:58.556Z,58
2023-03-17T07:23:01.177Z,58
2023-03-17T07:33:03.165Z,57
2023-03-17T07:43:05.078Z,56
2023-03-17T07:53:07.387Z,55
2023-03-17T08:03:11.006Z,54
2023-03-17T08:13:12.489Z,52
2023-03-17T08:23:14.508Z,52
2023-03-17T08:33:16.444Z,52
2023-03-17T08:43:18.616Z,51
2023-03-17T08:53:20.811Z,50
2023-03-17T09:03:23.046Z,49
2023-03-17T09:13:25.340Z,49
2023-03-17T09:23:27.334Z,49
2023-03-17T09:33:29.324Z,48
2023-03-17T09:43:31.544Z,47
2023-03-17T09:53:34.005Z,47
2023-03-17T10:03:36.388Z,47
2023-03-17T10:13:38.198Z,46
2023-03-17T10:23:40.008Z,46
2023-03-17T10:33:42.502Z,46
2023-03-17T10:43:44.847Z,45
2023-03-17T10:53:46.829Z,44
2023-03-17T11:03:49.072Z,45
2023-03-17T11:23:53.103Z,44
2023-03-17T11:43:56.747Z,43
2023-03-17T11:53:58.836Z,42
2023-03-17T12:04:00.838Z,42
2023-03-17T12:14:03.085Z,43
2023-03-17T12:24:05.287Z,41
2023-03-17T12:34:07.159Z,41
2023-03-17T12:44:09.481Z,41
2023-03-17T12:54:11.758Z,41
2023-03-17T13:04:13.897Z,41
2023-03-17T13:14:16.326Z,41
2023-03-17T13:24:18.672Z,41
2023-03-17T13:34:20.800Z,40
2023-03-17T13:44:23.264Z,41
2023-03-17T13:54:25.696Z,41
2023-03-17T14:04:27.806Z,41
2023-03-17T14:14:32.742Z,42
2023-03-17T14:24:31.409Z,42
2023-03-17T14:34:33.991Z,43
2023-03-17T14:44:35.929Z,43
2023-03-17T15:04:39.729Z,43
2023-03-17T15:14:42.080Z,44
2023-03-17T15:24:44.337Z,44
2023-03-17T15:44:49.396Z,45
2023-03-17T15:54:51.603Z,46
2023-03-17T16:04:53.430Z,46
2023-03-17T16:14:56.004Z,47
2023-03-17T16:17:50.509Z,47
2023-03-17T16:35:10.418Z,48
2023-03-17T16:55:14.526Z,49
2023-03-17T17:15:19.378Z,49
2023-03-17T17:25:21.230Z,49
2023-03-17T17:35:23.339Z,50
2023-03-17T17:45:25.654Z,50
2023-03-17T17:55:27.682Z,50
2023-03-17T18:05:29.439Z,51
2023-03-17T18:15:32.023Z,52
2023-03-17T18:25:34.457Z,52
2023-03-17T18:35:36.629Z,53
2023-03-17T18:45:39.204Z,54
2023-03-17T18:55:41.084Z,55
2023-03-17T19:05:42.724Z,55
2023-03-17T19:15:44.658Z,56
2023-03-17T19:25:46.978Z,58
2023-03-17T19:35:49.109Z,60
2023-03-17T19:45:50.992Z,60
2023-03-17T20:15:58.006Z,59
2023-03-17T20:25:59.767Z,59
2023-03-17T20:36:01.782Z,58
2023-03-17T20:46:03.777Z,58
2023-03-17T20:56:06.474Z,58
2023-03-17T21:06:08.305Z,57
2023-03-17T21:16:10.136Z,58
2023-03-17T21:26:12.776Z,61
2023-03-17T21:36:15.341Z,63
2023-03-17T21:46:17.639Z,65
2023-03-17T22:06:21.255Z,70
2023-03-17T22:16:23.079Z,72
2023-03-17T22:26:25.142Z,74
2023-03-17T22:36:27.830Z,75
2023-03-17T22:46:30.458Z,75
2023-03-17T22:56:32.702Z,76
2023-03-17T23:06:34.592Z,78
2023-03-17T23:16:36.717Z,79
2023-03-17T23:26:38.769Z,80
2023-03-17T23:36:40.811Z,81
2023-03-17T23:46:42.773Z,82
2023-03-17T23:56:44.772Z,82
